sensor_id;sensor_type;location;lat;lon;timestamp;temperature;humidity
39881;DHT22;25554;44.954;10.068;2023-12-20T00:00:10;1.60;99.90
39881;DHT22;25554;44.954;10.068;2023-12-20T00:02:37;1.60;99.90
39881;DHT22;25554;44.954;10.068;2023-12-20T00:05:03;1.60;99.90
39881;DHT22;25554;44.954;10.068;2023-12-20T00:07:29;1.60;99.90
39881;DHT22;25554;44.954;10.068;2023-12-20T00:09:56;1.60;99.90
39881;DHT22;25554;44.954;10.068;2023-12-20T00:12:22;1.50;99.90
39881;DHT22;25554;44.954;10.068;2023-12-20T00:14:49;1.50;99.90
39881;DHT22;25554;44.954;10.068;2023-12-20T00:17:15;1.50;99.90
39881;DHT22;25554;44.954;10.068;2023-12-20T00:19:41;1.50;99.90
39881;DHT22;25554;44.954;10.068;2023-12-20T00:22:07;1.50;99.90
39881;DHT22;25554;44.954;10.068;2023-12-20T00:24:34;1.40;99.90
39881;DHT22;25554;44.954;10.068;2023-12-20T00:27:00;1.40;99.90
39881;DHT22;25554;44.954;10.068;2023-12-20T00:29:26;1.30;99.90
39881;DHT22;25554;44.954;10.068;2023-12-20T00:31:52;1.30;99.90
39881;DHT22;25554;44.954;10.068;2023-12-20T00:34:19;1.30;99.90
39881;DHT22;25554;44.954;10.068;2023-12-20T00:36:45;1.30;99.90
39881;DHT22;25554;44.954;10.068;2023-12-20T00:39:11;1.30;99.90
39881;DHT22;25554;44.954;10.068;2023-12-20T00:41:37;1.30;99.90
39881;DHT22;25554;44.954;10.068;2023-12-20T00:44:03;1.30;99.90
39881;DHT22;25554;44.954;10.068;2023-12-20T00:46:30;1.30;99.90
39881;DHT22;25554;44.954;10.068;2023-12-20T00:48:56;1.10;99.90
39881;DHT22;25554;44.954;10.068;2023-12-20T00:51:22;1.30;99.90
39881;DHT22;25554;44.954;10.068;2023-12-20T00:53:49;1.20;99.90
39881;DHT22;25554;44.954;10.068;2023-12-20T00:56:16;1.20;99.90
39881;DHT22;25554;44.954;10.068;2023-12-20T00:58:42;1.20;99.90
39881;DHT22;25554;44.954;10.068;2023-12-20T01:01:09;1.20;99.90
39881;DHT22;25554;44.954;10.068;2023-12-20T01:03:35;1.20;99.90
39881;DHT22;25554;44.954;10.068;2023-12-20T01:06:02;1.20;99.90
39881;DHT22;25554;44.954;10.068;2023-12-20T01:08:28;1.20;99.90
39881;DHT22;25554;44.954;10.068;2023-12-20T01:10:55;1.20;99.90
39881;DHT22;25554;44.954;10.068;2023-12-20T01:13:21;1.20;99.90
39881;DHT22;25554;44.954;10.068;2023-12-20T01:15:47;1.10;99.90
39881;DHT22;25554;44.954;10.068;2023-12-20T01:18:14;1.10;99.90
39881;DHT22;25554;44.954;10.068;2023-12-20T01:20:40;1.00;99.90
39881;DHT22;25554;44.954;10.068;2023-12-20T01:23:07;1.00;99.90
39881;DHT22;25554;44.954;10.068;2023-12-20T01:25:33;1.00;99.90
39881;DHT22;25554;44.954;10.068;2023-12-20T01:27:59;1.00;99.90
39881;DHT22;25554;44.954;10.068;2023-12-20T01:30:25;1.00;99.90
39881;DHT22;25554;44.954;10.068;2023-12-20T01:32:51;1.00;99.90
39881;DHT22;25554;44.954;10.068;2023-12-20T01:35:18;0.90;99.90
39881;DHT22;25554;44.954;10.068;2023-12-20T01:37:44;1.00;99.90
39881;DHT22;25554;44.954;10.068;2023-12-20T01:40:11;1.00;99.90
39881;DHT22;25554;44.954;10.068;2023-12-20T01:42:37;1.10;99.90
39881;DHT22;25554;44.954;10.068;2023-12-20T01:45:03;1.20;99.90
39881;DHT22;25554;44.954;10.068;2023-12-20T01:47:30;1.10;99.90
39881;DHT22;25554;44.954;10.068;2023-12-20T01:49:56;1.10;99.90
39881;DHT22;25554;44.954;10.068;2023-12-20T01:52:23;1.10;99.90
39881;DHT22;25554;44.954;10.068;2023-12-20T01:54:50;1.20;99.90
39881;DHT22;25554;44.954;10.068;2023-12-20T01:57:17;1.20;99.90
39881;DHT22;25554;44.954;10.068;2023-12-20T01:59:44;1.10;99.90
39881;DHT22;25554;44.954;10.068;2023-12-20T02:02:10;1.10;99.90
39881;DHT22;25554;44.954;10.068;2023-12-20T02:04:38;1.10;99.90
39881;DHT22;25554;44.954;10.068;2023-12-20T02:07:05;1.00;99.90
39881;DHT22;25554;44.954;10.068;2023-12-20T02:09:33;1.20;99.90
39881;DHT22;25554;44.954;10.068;2023-12-20T02:11:59;1.10;99.90
39881;DHT22;25554;44.954;10.068;2023-12-20T02:14:26;1.20;99.90
39881;DHT22;25554;44.954;10.068;2023-12-20T02:16:52;1.20;99.90
39881;DHT22;25554;44.954;10.068;2023-12-20T02:19:20;1.20;99.90
39881;DHT22;25554;44.954;10.068;2023-12-20T02:21:46;1.20;99.90
39881;DHT22;25554;44.954;10.068;2023-12-20T02:24:12;1.10;99.90
39881;DHT22;25554;44.954;10.068;2023-12-20T02:26:39;1.10;99.90
39881;DHT22;25554;44.954;10.068;2023-12-20T02:29:06;1.10;99.90
39881;DHT22;25554;44.954;10.068;2023-12-20T02:31:32;1.10;99.90
39881;DHT22;25554;44.954;10.068;2023-12-20T02:33:59;1.10;99.90
39881;DHT22;25554;44.954;10.068;2023-12-20T02:36:25;1.10;99.90
39881;DHT22;25554;44.954;10.068;2023-12-20T02:38:51;1.10;99.90
39881;DHT22;25554;44.954;10.068;2023-12-20T02:41:18;1.10;99.90
39881;DHT22;25554;44.954;10.068;2023-12-20T02:43:45;1.00;99.90
39881;DHT22;25554;44.954;10.068;2023-12-20T02:46:12;1.00;99.90
39881;DHT22;25554;44.954;10.068;2023-12-20T02:48:39;1.00;99.90
39881;DHT22;25554;44.954;10.068;2023-12-20T02:51:06;1.00;99.90
39881;DHT22;25554;44.954;10.068;2023-12-20T02:53:32;1.00;99.90
39881;DHT22;25554;44.954;10.068;2023-12-20T02:55:58;0.90;99.90
39881;DHT22;25554;44.954;10.068;2023-12-20T02:58:24;0.90;99.90
39881;DHT22;25554;44.954;10.068;2023-12-20T03:00:50;0.90;99.90
39881;DHT22;25554;44.954;10.068;2023-12-20T03:03:17;0.90;99.90
39881;DHT22;25554;44.954;10.068;2023-12-20T03:05:43;1.00;99.90
39881;DHT22;25554;44.954;10.068;2023-12-20T03:08:11;1.10;99.90
39881;DHT22;25554;44.954;10.068;2023-12-20T03:10:37;1.20;99.90
39881;DHT22;25554;44.954;10.068;2023-12-20T03:13:03;1.20;99.90
39881;DHT22;25554;44.954;10.068;2023-12-20T03:15:30;1.20;99.90
39881;DHT22;25554;44.954;10.068;2023-12-20T03:17:56;1.20;99.90
39881;DHT22;25554;44.954;10.068;2023-12-20T03:20:22;1.10;99.90
39881;DHT22;25554;44.954;10.068;2023-12-20T03:22:49;1.00;99.90
39881;DHT22;25554;44.954;10.068;2023-12-20T03:25:15;1.00;99.90
39881;DHT22;25554;44.954;10.068;2023-12-20T03:27:41;0.90;99.90
39881;DHT22;25554;44.954;10.068;2023-12-20T03:30:07;0.90;99.90
39881;DHT22;25554;44.954;10.068;2023-12-20T03:32:33;0.90;99.90
39881;DHT22;25554;44.954;10.068;2023-12-20T03:35:00;0.90;99.90
39881;DHT22;25554;44.954;10.068;2023-12-20T03:37:26;0.90;99.90
39881;DHT22;25554;44.954;10.068;2023-12-20T03:39:52;0.90;99.90
39881;DHT22;25554;44.954;10.068;2023-12-20T03:42:19;1.00;99.90
39881;DHT22;25554;44.954;10.068;2023-12-20T03:44:45;1.00;99.90
39881;DHT22;25554;44.954;10.068;2023-12-20T03:47:11;1.10;99.90
39881;DHT22;25554;44.954;10.068;2023-12-20T03:49:38;1.00;99.90
39881;DHT22;25554;44.954;10.068;2023-12-20T03:52:05;1.10;99.90
39881;DHT22;25554;44.954;10.068;2023-12-20T03:54:31;1.10;99.90
39881;DHT22;25554;44.954;10.068;2023-12-20T03:56:57;1.10;99.90
39881;DHT22;25554;44.954;10.068;2023-12-20T03:59:24;1.20;99.90
39881;DHT22;25554;44.954;10.068;2023-12-20T04:01:50;1.20;99.90
39881;DHT22;25554;44.954;10.068;2023-12-20T04:04:16;1.20;99.90
39881;DHT22;25554;44.954;10.068;2023-12-20T04:06:42;1.20;99.90
39881;DHT22;25554;44.954;10.068;2023-12-20T04:09:09;1.20;99.90
39881;DHT22;25554;44.954;10.068;2023-12-20T04:11:36;1.20;99.90
39881;DHT22;25554;44.954;10.068;2023-12-20T04:14:02;1.20;99.90
39881;DHT22;25554;44.954;10.068;2023-12-20T04:16:28;1.20;99.90
39881;DHT22;25554;44.954;10.068;2023-12-20T04:18:54;1.30;99.90
39881;DHT22;25554;44.954;10.068;2023-12-20T04:21:21;1.20;99.90
39881;DHT22;25554;44.954;10.068;2023-12-20T04:23:47;1.20;99.90
39881;DHT22;25554;44.954;10.068;2023-12-20T04:26:13;1.20;99.90
39881;DHT22;25554;44.954;10.068;2023-12-20T04:28:39;1.00;99.90
39881;DHT22;25554;44.954;10.068;2023-12-20T04:31:06;1.20;99.90
39881;DHT22;25554;44.954;10.068;2023-12-20T04:33:32;1.10;99.90
39881;DHT22;25554;44.954;10.068;2023-12-20T04:35:58;1.10;99.90
39881;DHT22;25554;44.954;10.068;2023-12-20T04:38:26;1.10;99.90
39881;DHT22;25554;44.954;10.068;2023-12-20T04:40:52;1.10;99.90
39881;DHT22;25554;44.954;10.068;2023-12-20T04:43:19;1.10;99.90
39881;DHT22;25554;44.954;10.068;2023-12-20T04:45:45;1.20;99.90
39881;DHT22;25554;44.954;10.068;2023-12-20T04:48:11;1.20;99.90
39881;DHT22;25554;44.954;10.068;2023-12-20T04:50:38;1.20;99.90
39881;DHT22;25554;44.954;10.068;2023-12-20T04:53:04;1.20;99.90
39881;DHT22;25554;44.954;10.068;2023-12-20T04:55:30;1.20;99.90
39881;DHT22;25554;44.954;10.068;2023-12-20T04:57:57;1.30;99.90
39881;DHT22;25554;44.954;10.068;2023-12-20T05:00:23;1.30;99.90
39881;DHT22;25554;44.954;10.068;2023-12-20T05:02:49;1.30;99.90
39881;DHT22;25554;44.954;10.068;2023-12-20T05:05:15;1.30;99.90
39881;DHT22;25554;44.954;10.068;2023-12-20T05:07:44;1.20;99.90
39881;DHT22;25554;44.954;10.068;2023-12-20T05:10:10;1.10;99.90
39881;DHT22;25554;44.954;10.068;2023-12-20T05:12:36;1.10;99.90
39881;DHT22;25554;44.954;10.068;2023-12-20T05:15:05;1.00;99.90
39881;DHT22;25554;44.954;10.068;2023-12-20T05:17:31;1.00;99.90
39881;DHT22;25554;44.954;10.068;2023-12-20T05:19:58;0.90;99.90
39881;DHT22;25554;44.954;10.068;2023-12-20T05:22:24;0.90;99.90
39881;DHT22;25554;44.954;10.068;2023-12-20T05:24:50;0.90;99.90
39881;DHT22;25554;44.954;10.068;2023-12-20T05:27:17;0.90;99.90
39881;DHT22;25554;44.954;10.068;2023-12-20T05:29:43;0.90;99.90
39881;DHT22;25554;44.954;10.068;2023-12-20T05:32:09;0.90;99.90
39881;DHT22;25554;44.954;10.068;2023-12-20T05:34:36;0.90;99.90
39881;DHT22;25554;44.954;10.068;2023-12-20T05:37:02;1.00;99.90
39881;DHT22;25554;44.954;10.068;2023-12-20T05:39:29;1.00;99.90
39881;DHT22;25554;44.954;10.068;2023-12-20T05:41:57;1.00;99.90
39881;DHT22;25554;44.954;10.068;2023-12-20T05:44:23;1.10;99.90
39881;DHT22;25554;44.954;10.068;2023-12-20T05:46:49;1.10;99.90
39881;DHT22;25554;44.954;10.068;2023-12-20T05:49:15;1.10;99.90
39881;DHT22;25554;44.954;10.068;2023-12-20T05:51:42;1.10;99.90
39881;DHT22;25554;44.954;10.068;2023-12-20T05:54:09;1.10;99.90
39881;DHT22;25554;44.954;10.068;2023-12-20T05:56:35;1.10;99.90
39881;DHT22;25554;44.954;10.068;2023-12-20T05:59:01;1.00;99.90
39881;DHT22;25554;44.954;10.068;2023-12-20T06:01:28;1.00;99.90
39881;DHT22;25554;44.954;10.068;2023-12-20T06:03:54;0.90;99.90
39881;DHT22;25554;44.954;10.068;2023-12-20T06:06:20;0.90;99.90
39881;DHT22;25554;44.954;10.068;2023-12-20T06:08:46;0.90;99.90
39881;DHT22;25554;44.954;10.068;2023-12-20T06:11:12;0.90;99.90
39881;DHT22;25554;44.954;10.068;2023-12-20T06:13:39;0.90;99.90
39881;DHT22;25554;44.954;10.068;2023-12-20T06:16:06;1.00;99.90
39881;DHT22;25554;44.954;10.068;2023-12-20T06:18:33;1.10;99.90
39881;DHT22;25554;44.954;10.068;2023-12-20T06:20:59;1.10;99.90
39881;DHT22;25554;44.954;10.068;2023-12-20T06:23:26;1.20;99.90
39881;DHT22;25554;44.954;10.068;2023-12-20T06:25:53;1.20;99.90
39881;DHT22;25554;44.954;10.068;2023-12-20T06:28:20;1.30;99.90
39881;DHT22;25554;44.954;10.068;2023-12-20T06:30:46;1.30;99.90
39881;DHT22;25554;44.954;10.068;2023-12-20T06:33:15;1.30;99.90
39881;DHT22;25554;44.954;10.068;2023-12-20T06:35:42;1.40;99.90
39881;DHT22;25554;44.954;10.068;2023-12-20T06:38:08;1.50;99.90
39881;DHT22;25554;44.954;10.068;2023-12-20T06:40:35;1.50;99.90
39881;DHT22;25554;44.954;10.068;2023-12-20T06:43:01;1.60;99.90
39881;DHT22;25554;44.954;10.068;2023-12-20T06:45:28;1.60;99.90
39881;DHT22;25554;44.954;10.068;2023-12-20T06:47:54;1.60;99.90
39881;DHT22;25554;44.954;10.068;2023-12-20T06:50:21;1.60;99.90
39881;DHT22;25554;44.954;10.068;2023-12-20T06:52:47;1.60;99.90
39881;DHT22;25554;44.954;10.068;2023-12-20T06:55:13;1.60;99.90
39881;DHT22;25554;44.954;10.068;2023-12-20T06:57:40;1.60;99.90
39881;DHT22;25554;44.954;10.068;2023-12-20T07:00:07;1.60;99.90
39881;DHT22;25554;44.954;10.068;2023-12-20T07:02:34;1.70;99.90
39881;DHT22;25554;44.954;10.068;2023-12-20T07:05:01;1.70;99.90
39881;DHT22;25554;44.954;10.068;2023-12-20T07:07:27;1.80;99.90
39881;DHT22;25554;44.954;10.068;2023-12-20T07:09:53;1.70;99.90
39881;DHT22;25554;44.954;10.068;2023-12-20T07:12:19;1.80;99.90
39881;DHT22;25554;44.954;10.068;2023-12-20T07:14:46;1.90;99.90
39881;DHT22;25554;44.954;10.068;2023-12-20T07:17:13;2.00;99.90
39881;DHT22;25554;44.954;10.068;2023-12-20T07:19:42;2.00;99.90
39881;DHT22;25554;44.954;10.068;2023-12-20T07:22:08;2.00;99.90
39881;DHT22;25554;44.954;10.068;2023-12-20T07:24:35;2.00;99.90
39881;DHT22;25554;44.954;10.068;2023-12-20T07:27:01;2.00;99.90
39881;DHT22;25554;44.954;10.068;2023-12-20T07:29:27;2.10;99.90
39881;DHT22;25554;44.954;10.068;2023-12-20T07:31:54;2.10;99.90
39881;DHT22;25554;44.954;10.068;2023-12-20T07:34:23;2.10;99.90
39881;DHT22;25554;44.954;10.068;2023-12-20T07:36:49;2.20;99.90
39881;DHT22;25554;44.954;10.068;2023-12-20T07:39:15;2.10;99.90
39881;DHT22;25554;44.954;10.068;2023-12-20T07:41:42;2.10;99.90
39881;DHT22;25554;44.954;10.068;2023-12-20T07:44:08;2.10;99.90
39881;DHT22;25554;44.954;10.068;2023-12-20T07:46:34;2.00;99.90
39881;DHT22;25554;44.954;10.068;2023-12-20T07:49:00;2.00;99.90
39881;DHT22;25554;44.954;10.068;2023-12-20T07:51:27;2.00;99.90
39881;DHT22;25554;44.954;10.068;2023-12-20T07:53:53;2.00;99.90
39881;DHT22;25554;44.954;10.068;2023-12-20T07:56:20;2.00;99.90
39881;DHT22;25554;44.954;10.068;2023-12-20T07:58:46;2.10;99.90
39881;DHT22;25554;44.954;10.068;2023-12-20T08:01:16;2.20;99.90
39881;DHT22;25554;44.954;10.068;2023-12-20T08:03:43;2.30;99.90
39881;DHT22;25554;44.954;10.068;2023-12-20T08:06:09;2.30;99.90
39881;DHT22;25554;44.954;10.068;2023-12-20T08:08:35;2.30;99.90
39881;DHT22;25554;44.954;10.068;2023-12-20T08:11:01;2.40;99.90
39881;DHT22;25554;44.954;10.068;2023-12-20T08:13:28;2.40;99.90
39881;DHT22;25554;44.954;10.068;2023-12-20T08:15:55;2.50;99.90
39881;DHT22;25554;44.954;10.068;2023-12-20T08:18:22;2.50;99.90
39881;DHT22;25554;44.954;10.068;2023-12-20T08:20:49;2.60;99.90
39881;DHT22;25554;44.954;10.068;2023-12-20T08:23:15;2.60;99.90
39881;DHT22;25554;44.954;10.068;2023-12-20T08:25:42;2.40;99.90
39881;DHT22;25554;44.954;10.068;2023-12-20T08:28:08;2.70;99.90
39881;DHT22;25554;44.954;10.068;2023-12-20T08:30:35;2.70;99.90
39881;DHT22;25554;44.954;10.068;2023-12-20T08:33:01;2.70;99.90
39881;DHT22;25554;44.954;10.068;2023-12-20T08:35:28;2.70;99.90
39881;DHT22;25554;44.954;10.068;2023-12-20T08:37:54;2.80;99.90
39881;DHT22;25554;44.954;10.068;2023-12-20T08:40:22;2.90;99.90
39881;DHT22;25554;44.954;10.068;2023-12-20T08:42:49;3.00;99.90
39881;DHT22;25554;44.954;10.068;2023-12-20T08:45:15;3.10;99.90
39881;DHT22;25554;44.954;10.068;2023-12-20T08:47:41;3.20;99.90
39881;DHT22;25554;44.954;10.068;2023-12-20T08:50:10;3.30;99.90
39881;DHT22;25554;44.954;10.068;2023-12-20T08:52:36;3.40;99.90
39881;DHT22;25554;44.954;10.068;2023-12-20T08:55:03;3.50;99.90
39881;DHT22;25554;44.954;10.068;2023-12-20T08:57:29;3.50;99.90
39881;DHT22;25554;44.954;10.068;2023-12-20T08:59:58;3.50;99.90
39881;DHT22;25554;44.954;10.068;2023-12-20T09:02:24;3.40;99.90
39881;DHT22;25554;44.954;10.068;2023-12-20T09:04:50;3.50;99.90
39881;DHT22;25554;44.954;10.068;2023-12-20T09:07:26;3.50;99.90
39881;DHT22;25554;44.954;10.068;2023-12-20T09:09:52;3.50;99.90
39881;DHT22;25554;44.954;10.068;2023-12-20T09:12:20;3.60;99.90
39881;DHT22;25554;44.954;10.068;2023-12-20T09:14:47;3.60;99.90
39881;DHT22;25554;44.954;10.068;2023-12-20T09:17:13;3.70;99.90
39881;DHT22;25554;44.954;10.068;2023-12-20T09:19:40;3.80;99.90
39881;DHT22;25554;44.954;10.068;2023-12-20T09:22:06;3.90;99.90
39881;DHT22;25554;44.954;10.068;2023-12-20T09:24:33;3.90;99.90
39881;DHT22;25554;44.954;10.068;2023-12-20T09:26:59;4.00;99.90
39881;DHT22;25554;44.954;10.068;2023-12-20T09:29:26;4.10;99.90
39881;DHT22;25554;44.954;10.068;2023-12-20T09:31:52;4.10;99.90
39881;DHT22;25554;44.954;10.068;2023-12-20T09:34:18;4.20;99.90
39881;DHT22;25554;44.954;10.068;2023-12-20T09:36:45;4.20;99.90
39881;DHT22;25554;44.954;10.068;2023-12-20T09:39:14;4.20;99.90
39881;DHT22;25554;44.954;10.068;2023-12-20T09:41:45;4.30;99.90
39881;DHT22;25554;44.954;10.068;2023-12-20T09:44:15;4.40;99.90
39881;DHT22;25554;44.954;10.068;2023-12-20T09:46:45;4.40;99.90
39881;DHT22;25554;44.954;10.068;2023-12-20T09:49:17;4.50;99.90
39881;DHT22;25554;44.954;10.068;2023-12-20T09:51:45;4.50;99.90
39881;DHT22;25554;44.954;10.068;2023-12-20T09:54:17;4.60;99.90
39881;DHT22;25554;44.954;10.068;2023-12-20T09:56:47;4.60;99.90
39881;DHT22;25554;44.954;10.068;2023-12-20T09:59:14;4.70;99.90
39881;DHT22;25554;44.954;10.068;2023-12-20T10:01:42;4.70;99.90
39881;DHT22;25554;44.954;10.068;2023-12-20T10:04:10;4.70;99.90
39881;DHT22;25554;44.954;10.068;2023-12-20T10:06:42;4.70;99.90
39881;DHT22;25554;44.954;10.068;2023-12-20T10:09:12;4.70;99.90
39881;DHT22;25554;44.954;10.068;2023-12-20T10:11:39;4.70;99.90
39881;DHT22;25554;44.954;10.068;2023-12-20T10:14:06;4.70;99.90
39881;DHT22;25554;44.954;10.068;2023-12-20T10:16:34;4.70;99.90
39881;DHT22;25554;44.954;10.068;2023-12-20T10:19:00;4.80;99.90
39881;DHT22;25554;44.954;10.068;2023-12-20T10:21:30;4.80;99.90
39881;DHT22;25554;44.954;10.068;2023-12-20T10:23:56;4.80;99.90
39881;DHT22;25554;44.954;10.068;2023-12-20T10:26:26;4.90;99.90
39881;DHT22;25554;44.954;10.068;2023-12-20T10:29:00;5.00;99.90
39881;DHT22;25554;44.954;10.068;2023-12-20T10:31:31;5.10;99.90
39881;DHT22;25554;44.954;10.068;2023-12-20T10:33:59;5.10;99.90
39881;DHT22;25554;44.954;10.068;2023-12-20T10:36:27;5.20;99.90
39881;DHT22;25554;44.954;10.068;2023-12-20T10:38:55;5.20;99.90
39881;DHT22;25554;44.954;10.068;2023-12-20T10:41:28;5.20;99.90
39881;DHT22;25554;44.954;10.068;2023-12-20T10:44:03;5.20;99.90
39881;DHT22;25554;44.954;10.068;2023-12-20T10:46:31;5.20;99.90
39881;DHT22;25554;44.954;10.068;2023-12-20T10:49:05;5.10;99.90
39881;DHT22;25554;44.954;10.068;2023-12-20T10:51:31;5.10;99.90
39881;DHT22;25554;44.954;10.068;2023-12-20T10:53:58;5.10;99.90
39881;DHT22;25554;44.954;10.068;2023-12-20T10:56:25;5.10;99.90
39881;DHT22;25554;44.954;10.068;2023-12-20T10:58:59;5.20;99.90
39881;DHT22;25554;44.954;10.068;2023-12-20T11:01:29;5.20;99.90
39881;DHT22;25554;44.954;10.068;2023-12-20T11:03:56;5.20;99.90
39881;DHT22;25554;44.954;10.068;2023-12-20T11:09:06;5.20;99.90
39881;DHT22;25554;44.954;10.068;2023-12-20T11:11:46;5.20;99.90
39881;DHT22;25554;44.954;10.068;2023-12-20T11:14:26;5.30;99.90
39881;DHT22;25554;44.954;10.068;2023-12-20T11:17:07;5.40;99.90
39881;DHT22;25554;44.954;10.068;2023-12-20T11:19:36;5.40;99.90
39881;DHT22;25554;44.954;10.068;2023-12-20T11:22:04;5.40;99.90
39881;DHT22;25554;44.954;10.068;2023-12-20T11:24:32;5.40;99.90
39881;DHT22;25554;44.954;10.068;2023-12-20T11:27:00;5.50;99.90
39881;DHT22;25554;44.954;10.068;2023-12-20T11:29:37;5.50;99.90
39881;DHT22;25554;44.954;10.068;2023-12-20T11:32:27;5.60;99.90
39881;DHT22;25554;44.954;10.068;2023-12-20T11:34:58;5.60;99.90
39881;DHT22;25554;44.954;10.068;2023-12-20T11:37:32;5.60;99.90
39881;DHT22;25554;44.954;10.068;2023-12-20T11:40:06;5.70;99.90
39881;DHT22;25554;44.954;10.068;2023-12-20T11:42:50;5.70;99.90
39881;DHT22;25554;44.954;10.068;2023-12-20T11:45:19;5.70;99.90
39881;DHT22;25554;44.954;10.068;2023-12-20T11:47:49;5.80;99.90
39881;DHT22;25554;44.954;10.068;2023-12-20T11:50:22;5.90;99.90
39881;DHT22;25554;44.954;10.068;2023-12-20T11:52:51;5.90;99.90
39881;DHT22;25554;44.954;10.068;2023-12-20T11:55:17;5.90;99.90
39881;DHT22;25554;44.954;10.068;2023-12-20T11:57:44;5.90;99.90
39881;DHT22;25554;44.954;10.068;2023-12-20T12:00:11;6.00;99.90
39881;DHT22;25554;44.954;10.068;2023-12-20T12:02:40;6.10;99.90
39881;DHT22;25554;44.954;10.068;2023-12-20T12:05:07;6.00;99.90
39881;DHT22;25554;44.954;10.068;2023-12-20T12:07:34;6.10;99.90
39881;DHT22;25554;44.954;10.068;2023-12-20T12:10:01;6.10;99.90
39881;DHT22;25554;44.954;10.068;2023-12-20T12:12:29;6.20;99.90
39881;DHT22;25554;44.954;10.068;2023-12-20T12:14:56;6.20;99.90
39881;DHT22;25554;44.954;10.068;2023-12-20T12:17:23;6.20;99.90
39881;DHT22;25554;44.954;10.068;2023-12-20T12:19:51;6.30;99.90
39881;DHT22;25554;44.954;10.068;2023-12-20T12:22:27;6.20;99.90
39881;DHT22;25554;44.954;10.068;2023-12-20T12:24:54;6.30;99.90
39881;DHT22;25554;44.954;10.068;2023-12-20T12:27:20;6.30;99.90
39881;DHT22;25554;44.954;10.068;2023-12-20T12:30:04;6.20;99.90
39881;DHT22;25554;44.954;10.068;2023-12-20T12:32:31;6.30;99.90
39881;DHT22;25554;44.954;10.068;2023-12-20T12:34:58;6.40;99.90
39881;DHT22;25554;44.954;10.068;2023-12-20T12:37:24;6.40;99.90
39881;DHT22;25554;44.954;10.068;2023-12-20T12:39:53;6.40;99.90
39881;DHT22;25554;44.954;10.068;2023-12-20T12:42:20;6.40;99.90
39881;DHT22;25554;44.954;10.068;2023-12-20T12:44:47;6.50;99.90
39881;DHT22;25554;44.954;10.068;2023-12-20T12:47:13;6.40;99.90
39881;DHT22;25554;44.954;10.068;2023-12-20T12:49:40;6.60;99.90
39881;DHT22;25554;44.954;10.068;2023-12-20T12:52:07;6.70;99.90
39881;DHT22;25554;44.954;10.068;2023-12-20T12:54:33;6.80;99.90
39881;DHT22;25554;44.954;10.068;2023-12-20T12:56:59;6.80;99.90
39881;DHT22;25554;44.954;10.068;2023-12-20T12:59:26;6.80;99.90
39881;DHT22;25554;44.954;10.068;2023-12-20T13:01:52;6.90;99.90
39881;DHT22;25554;44.954;10.068;2023-12-20T13:04:19;6.90;99.90
39881;DHT22;25554;44.954;10.068;2023-12-20T13:06:45;7.00;99.90
39881;DHT22;25554;44.954;10.068;2023-12-20T13:09:13;7.00;99.90
39881;DHT22;25554;44.954;10.068;2023-12-20T13:11:39;7.10;99.90
39881;DHT22;25554;44.954;10.068;2023-12-20T13:14:06;7.10;99.90
39881;DHT22;25554;44.954;10.068;2023-12-20T13:16:33;7.10;99.90
39881;DHT22;25554;44.954;10.068;2023-12-20T13:19:00;7.10;99.90
39881;DHT22;25554;44.954;10.068;2023-12-20T13:21:26;7.20;99.90
39881;DHT22;25554;44.954;10.068;2023-12-20T13:23:53;7.20;99.90
39881;DHT22;25554;44.954;10.068;2023-12-20T13:26:20;7.30;99.90
39881;DHT22;25554;44.954;10.068;2023-12-20T13:28:46;7.40;99.90
39881;DHT22;25554;44.954;10.068;2023-12-20T13:31:13;7.40;99.90
39881;DHT22;25554;44.954;10.068;2023-12-20T13:33:39;7.40;99.90
39881;DHT22;25554;44.954;10.068;2023-12-20T13:36:06;7.50;99.90
39881;DHT22;25554;44.954;10.068;2023-12-20T13:38:33;7.50;99.90
39881;DHT22;25554;44.954;10.068;2023-12-20T13:40:59;7.60;99.90
39881;DHT22;25554;44.954;10.068;2023-12-20T13:43:25;7.60;99.90
39881;DHT22;25554;44.954;10.068;2023-12-20T13:45:52;7.70;99.90
39881;DHT22;25554;44.954;10.068;2023-12-20T13:48:18;7.70;99.90
39881;DHT22;25554;44.954;10.068;2023-12-20T13:50:45;7.70;99.90
39881;DHT22;25554;44.954;10.068;2023-12-20T13:53:11;7.70;99.90
39881;DHT22;25554;44.954;10.068;2023-12-20T13:55:37;7.70;99.90
39881;DHT22;25554;44.954;10.068;2023-12-20T13:58:03;7.70;99.90
39881;DHT22;25554;44.954;10.068;2023-12-20T14:00:30;7.70;99.90
39881;DHT22;25554;44.954;10.068;2023-12-20T14:02:56;7.70;99.90
39881;DHT22;25554;44.954;10.068;2023-12-20T14:05:22;7.70;99.90
39881;DHT22;25554;44.954;10.068;2023-12-20T14:07:49;7.60;99.90
39881;DHT22;25554;44.954;10.068;2023-12-20T14:10:16;7.60;99.90
39881;DHT22;25554;44.954;10.068;2023-12-20T14:12:42;7.50;99.90
39881;DHT22;25554;44.954;10.068;2023-12-20T14:15:11;7.50;99.90
39881;DHT22;25554;44.954;10.068;2023-12-20T14:17:39;7.40;99.90
39881;DHT22;25554;44.954;10.068;2023-12-20T14:20:07;7.40;99.90
39881;DHT22;25554;44.954;10.068;2023-12-20T14:22:34;7.30;99.90
39881;DHT22;25554;44.954;10.068;2023-12-20T14:25:01;7.30;99.90
39881;DHT22;25554;44.954;10.068;2023-12-20T14:27:27;7.20;99.90
39881;DHT22;25554;44.954;10.068;2023-12-20T14:29:54;7.10;99.90
39881;DHT22;25554;44.954;10.068;2023-12-20T14:32:21;7.00;99.90
39881;DHT22;25554;44.954;10.068;2023-12-20T14:34:47;6.90;99.90
39881;DHT22;25554;44.954;10.068;2023-12-20T14:37:14;6.90;99.90
39881;DHT22;25554;44.954;10.068;2023-12-20T14:39:40;6.90;99.90
39881;DHT22;25554;44.954;10.068;2023-12-20T14:42:08;6.80;99.90
39881;DHT22;25554;44.954;10.068;2023-12-20T14:44:43;6.70;99.90
39881;DHT22;25554;44.954;10.068;2023-12-20T14:47:09;6.70;99.90
39881;DHT22;25554;44.954;10.068;2023-12-20T14:49:37;6.70;99.90
39881;DHT22;25554;44.954;10.068;2023-12-20T14:52:03;6.70;99.90
39881;DHT22;25554;44.954;10.068;2023-12-20T14:54:30;6.70;99.90
39881;DHT22;25554;44.954;10.068;2023-12-20T14:56:57;6.70;99.90
39881;DHT22;25554;44.954;10.068;2023-12-20T14:59:24;6.70;99.90
39881;DHT22;25554;44.954;10.068;2023-12-20T15:01:50;6.70;99.90
39881;DHT22;25554;44.954;10.068;2023-12-20T15:04:17;6.70;99.90
39881;DHT22;25554;44.954;10.068;2023-12-20T15:06:43;6.70;99.90
39881;DHT22;25554;44.954;10.068;2023-12-20T15:09:11;6.70;99.90
39881;DHT22;25554;44.954;10.068;2023-12-20T15:11:37;6.60;99.90
39881;DHT22;25554;44.954;10.068;2023-12-20T15:14:03;6.50;99.90
39881;DHT22;25554;44.954;10.068;2023-12-20T15:16:30;6.50;99.90
39881;DHT22;25554;44.954;10.068;2023-12-20T15:18:57;6.40;99.90
39881;DHT22;25554;44.954;10.068;2023-12-20T15:21:24;6.10;99.90
39881;DHT22;25554;44.954;10.068;2023-12-20T15:23:58;6.30;99.90
39881;DHT22;25554;44.954;10.068;2023-12-20T15:26:32;6.20;99.90
39881;DHT22;25554;44.954;10.068;2023-12-20T15:28:59;6.10;99.90
39881;DHT22;25554;44.954;10.068;2023-12-20T15:31:27;6.10;99.90